Time;durP1;ratioP1;P1;durP2;ratioP2;P2;SDS_P1;SDS_P2;PMS_P1;PMS_P2;Temp;Humidity;BMP_temperature;BMP_pressure;BME280_temperature;BME280_humidity;BME280_pressure;Samples;Min_cycle;Max_cycle;Signal;HPM_P1;HPM_P2
2021/04/20 00:00:45;;;;;;;23.95;12.13;;;;;;;29.78;61.69;100975.38;5018091;28;65458;-28
2021/04/20 00:03:15;;;;;;;25.17;13.27;;;;;;;29.83;62.26;100967.41;5014753;28;70403;-29
2021/04/20 00:05:45;;;;;;;25.33;13.27;;;;;;;29.85;62.34;100972.63;5019650;28;65353;-30
2021/04/20 00:08:14;;;;;;;20.08;11.77;;;;;;;29.87;63.01;100975.97;5019635;28;70142;-29
2021/04/20 00:10:44;;;;;;;18.77;12.93;;;;;;;29.93;62.77;100985.09;5019880;28;66519;-30
2021/04/20 00:13:14;;;;;;;23.70;14.30;;;;;;;29.99;62.79;100981.53;5011236;28;70102;-28
2021/04/20 00:15:43;;;;;;;21.00;13.70;;;;;;;29.97;63.31;101000.69;5016416;28;66876;-28
2021/04/20 00:18:13;;;;;;;14.43;12.48;;;;;;;29.97;63.52;100995.28;5019481;28;70073;-28
2021/04/20 00:20:42;;;;;;;27.05;13.05;;;;;;;30.02;63.50;100987.34;5017582;28;65327;-28
2021/04/20 00:23:12;;;;;;;14.18;11.18;;;;;;;30.09;62.85;100995.47;5009325;28;70977;-28
2021/04/20 00:25:42;;;;;;;26.13;12.20;;;;;;;30.16;62.86;101004.38;5016875;28;65785;-28
2021/04/20 00:28:11;;;;;;;19.20;12.45;;;;;;;30.21;62.35;101012.69;5015908;28;69466;-28
2021/04/20 00:30:41;;;;;;;21.67;12.45;;;;;;;30.27;61.80;101008.34;4999748;28;66078;-28
2021/04/20 00:33:10;;;;;;;23.70;12.20;;;;;;;30.31;61.45;101022.28;5017151;28;69068;-28
2021/04/20 00:35:40;;;;;;;17.08;12.57;;;;;;;30.32;61.15;101021.25;5021466;28;66427;-28
2021/04/20 00:38:16;;;;;;;17.02;10.85;;;;;;;30.32;61.15;101029.38;5019163;28;69887;-29
2021/04/20 00:40:45;;;;;;;19.25;11.40;;;;;;;30.37;60.98;101024.13;5036352;28;66081;-28
2021/04/20 00:43:18;;;;;;;18.88;11.35;;;;;;;30.38;60.69;101026.63;5028805;28;70070;-29
2021/04/20 00:45:47;;;;;;;17.42;11.75;;;;;;;30.41;61.08;101038.91;5018554;28;66110;-28
2021/04/20 00:48:17;;;;;;;15.82;11.20;;;;;;;30.38;60.79;101028.50;5029371;28;69841;-28
2021/04/20 00:50:46;;;;;;;13.95;10.95;;;;;;;30.43;60.82;101031.41;5022793;28;65405;-28
2021/04/20 00:53:16;;;;;;;22.48;11.55;;;;;;;30.45;60.33;101029.28;5024507;28;69997;-28
2021/04/20 00:55:49;;;;;;;13.77;11.48;;;;;;;30.50;60.44;101040.31;5032440;28;66088;-29
2021/04/20 00:58:19;;;;;;;13.05;10.73;;;;;;;30.50;60.59;101027.59;5036090;27;69982;-29
2021/04/20 01:00:50;;;;;;;14.15;10.55;;;;;;;30.53;60.51;101026.34;5014941;28;66508;-29
2021/04/20 01:03:20;;;;;;;;;;;;;;;30.49;60.42;101035.97;5011065;28;69302;-29
2021/04/20 01:05:51;;;;;;;12.77;10.98;;;;;;;30.61;60.41;101036.94;5020583;28;66260;-29
2021/04/20 01:08:25;;;;;;;14.18;10.57;;;;;;;30.61;60.41;101038.81;5021917;28;69861;-30
2021/04/20 01:10:58;;;;;;;15.48;10.38;;;;;;;30.60;60.70;101043.41;5006689;28;66389;-29
2021/04/20 01:13:32;;;;;;;11.98;9.90;;;;;;;30.61;60.22;101034.22;5017259;28;70053;-30
2021/04/20 01:16:02;;;;;;;10.98;10.07;;;;;;;30.67;59.75;101052.34;5022111;28;66239;-30
2021/04/20 01:18:37;;;;;;;11.38;9.80;;;;;;;30.69;60.00;101047.53;5016879;28;69401;-28
2021/04/20 01:21:12;;;;;;;10.35;9.40;;;;;;;30.66;59.63;101037.13;5018621;28;66905;-29
2021/04/20 01:23:54;;;;;;;11.85;10.27;;;;;;;30.70;59.84;101046.50;5031229;28;69229;-29
2021/04/20 01:26:27;;;;;;;10.40;9.57;;;;;;;30.71;59.71;101039.19;5026811;28;65903;-29
2021/04/20 01:28:57;;;;;;;10.35;9.32;;;;;;;30.79;60.04;101057.09;5035586;28;70047;-29
2021/04/20 01:31:29;;;;;;;10.52;9.30;;;;;;;30.81;59.68;101049.59;5035160;28;66530;-30
2021/04/20 01:34:00;;;;;;;10.75;9.70;;;;;;;30.84;59.60;101055.41;5024291;28;70662;-29
2021/04/20 01:36:31;;;;;;;10.80;9.38;;;;;;;30.87;59.14;101055.00;5023887;28;65970;-29
2021/04/20 01:39:04;;;;;;;9.77;8.77;;;;;;;30.89;59.17;101054.75;5016604;28;69989;-30
2021/04/20 01:41:38;;;;;;;12.75;9.70;;;;;;;30.85;59.20;101046.25;5019298;28;66005;-30
2021/04/20 01:44:08;;;;;;;9.35;8.73;;;;;;;30.94;59.28;101055.75;5017502;28;70485;-29
2021/04/20 01:46:38;;;;;;;10.15;9.20;;;;;;;30.97;59.43;101061.81;5014592;28;65836;-29
2021/04/20 01:49:08;;;;;;;9.77;9.05;;;;;;;30.99;59.32;101060.53;5017737;28;70115;-30
2021/04/20 01:51:37;;;;;;;10.85;8.65;;;;;;;31.02;58.62;101057.41;5018733;28;66134;-29
2021/04/20 01:54:07;;;;;;;9.63;8.70;;;;;;;31.02;59.13;101057.41;5016358;28;68941;-29
2021/04/20 01:56:38;;;;;;;8.80;8.20;;;;;;;31.04;58.60;101044.47;5017994;28;65951;-29
2021/04/20 01:59:07;;;;;;;8.48;7.93;;;;;;;31.09;58.55;101051.94;5017103;28;69771;-29
2021/04/20 02:01:37;;;;;;;7.88;7.38;;;;;;;31.10;59.04;101054.44;5014854;28;65901;-29
2021/04/20 02:04:08;;;;;;;9.63;8.95;;;;;;;31.07;58.74;101048.63;5016885;28;69852;-29
2021/04/20 02:06:38;;;;;;;9.43;7.33;;;;;;;31.13;58.36;101048.56;5032142;28;66599;-29
2021/04/20 02:09:11;;;;;;;8.07;7.55;;;;;;;31.16;58.62;101047.31;5017492;28;69656;-29
2021/04/20 02:11:41;;;;;;;8.98;8.27;;;;;;;31.21;58.41;101054.78;5029211;28;66636;-29
2021/04/20 02:14:11;;;;;;;8.80;8.10;;;;;;;31.22;58.40;101061.88;5018561;28;69827;-30
2021/04/20 02:16:42;;;;;;;9.02;8.23;;;;;;;31.25;58.35;101056.00;5028816;28;65052;-30
2021/04/20 02:19:14;;;;;;;8.20;7.70;;;;;;;31.27;58.76;101067.47;5020399;28;69842;-29
2021/04/20 02:21:44;;;;;;;8.15;7.47;;;;;;;31.28;58.38;101059.09;5025393;28;65917;-30
2021/04/20 02:24:15;;;;;;;8.27;7.68;;;;;;;31.31;58.41;101057.84;5026486;28;69773;-29
2021/04/20 02:26:44;;;;;;;8.30;7.75;;;;;;;31.34;58.29;101054.69;5033260;28;66445;-28
2021/04/20 02:29:14;;;;;;;9.27;7.13;;;;;;;31.36;58.21;101060.75;4993249;28;69009;-29
2021/04/20 02:31:44;;;;;;;8.25;7.60;;;;;;;31.37;58.17;101054.28;5009688;28;65460;-29
2021/04/20 02:34:14;;;;;;;8.38;7.68;;;;;;;31.37;58.42;101049.72;5028368;28;69083;-29
2021/04/20 02:36:44;;;;;;;9.43;8.50;;;;;;;31.41;58.37;101052.81;5012654;28;65315;-30
2021/04/20 02:39:14;;;;;;;7.50;6.93;;;;;;;31.45;58.41;101045.06;5024292;28;70348;-28
2021/04/20 02:41:48;;;;;;;7.95;7.40;;;;;;;31.44;57.88;101038.81;5018112;28;65450;-29
2021/04/20 02:44:18;;;;;;;9.45;7.03;;;;;;;31.52;57.86;101046.66;4997942;28;69026;-29
2021/04/20 02:46:48;;;;;;;7.88;7.22;;;;;;;31.57;58.10;101032.47;5020924;28;65646;-29
2021/04/20 02:49:18;;;;;;;8.07;7.38;;;;;;;31.58;57.99;101040.34;5029043;28;69990;-28
2021/04/20 02:51:56;;;;;;;8.68;7.35;;;;;;;31.58;57.71;101029.50;5018231;28;66143;-29
2021/04/20 02:54:27;;;;;;;9.48;7.13;;;;;;;31.60;58.11;101035.53;5028389;28;70040;-29
2021/04/20 02:56:59;;;;;;;7.72;7.07;;;;;;;31.59;57.84;101027.63;5046545;28;65664;-29
2021/04/20 02:59:29;;;;;;;;;;;;;;;31.59;57.59;101030.34;5021786;28;69136;-29
2021/04/20 03:02:02;;;;;;;7.95;7.15;;;;;;;31.66;57.20;101014.84;5012624;28;65262;-28
2021/04/20 03:04:32;;;;;;;9.18;7.50;;;;;;;31.74;57.83;101027.31;5029906;28;68842;-29
2021/04/20 03:07:05;;;;;;;7.57;6.97;;;;;;;31.72;57.91;101018.53;5025233;28;66375;-29
2021/04/20 03:09:35;;;;;;;7.82;7.25;;;;;;;31.77;57.88;101016.81;5016456;28;69322;-29
2021/04/20 03:12:05;;;;;;;9.25;6.90;;;;;;;31.79;57.26;101011.19;5027079;28;66421;-29
2021/04/20 03:14:38;;;;;;;8.05;7.45;;;;;;;31.82;57.06;101013.47;5028812;28;70901;-29
2021/04/20 03:17:07;;;;;;;7.50;6.90;;;;;;;31.85;57.16;101010.28;5016970;28;65391;-29
2021/04/20 03:19:40;;;;;;;7.68;6.90;;;;;;;31.89;57.45;101007.94;5028404;28;69123;-30
2021/04/20 03:22:13;;;;;;;8.35;7.63;;;;;;;31.89;57.41;101003.34;5026649;28;65399;-29
2021/04/20 03:25:01;;;;;;;7.93;7.13;;;;;;;31.86;57.63;100997.56;5016240;28;69223;-30
2021/04/20 03:27:34;;;;;;;7.53;7.03;;;;;;;31.92;57.13;100997.50;5027484;28;66330;-29
2021/04/20 03:30:07;;;;;;;7.45;6.90;;;;;;;31.97;57.52;100996.84;5022926;28;70048;-30
2021/04/20 03:32:40;;;;;;;6.82;6.40;;;;;;;31.91;57.33;100984.16;5019898;28;66199;-30
2021/04/20 03:35:27;;;;;;;7.70;6.97;;;;;;;31.93;56.77;100995.63;5015714;28;69875;-28
2021/04/20 03:38:16;;;;;;;7.07;6.57;;;;;;;31.90;56.74;100983.31;5016453;28;66260;-29
2021/04/20 03:40:50;;;;;;;7.07;6.43;;;;;;;31.99;56.86;100990.13;5022913;28;69943;-29
2021/04/20 03:43:25;;;;;;;10.18;6.93;;;;;;;32.03;56.75;100994.03;5023596;28;65345;-29
2021/04/20 03:46:06;;;;;;;7.65;6.93;;;;;;;32.05;56.91;100981.09;5029024;28;70017;-34
2021/04/20 03:49:05;;;;;;;8.55;7.85;;;;;;;32.07;56.77;100982.72;5016801;28;65754;-30
2021/04/20 03:51:36;;;;;;;7.65;6.85;;;;;;;32.10;56.60;100976.88;5001791;28;69176;-31
2021/04/20 03:54:08;;;;;;;8.30;6.90;;;;;;;32.10;56.78;100976.88;5005824;28;67422;-30
2021/04/20 03:56:40;;;;;;;6.80;6.25;;;;;;;32.11;56.73;100967.66;5016755;28;68290;-30
2021/04/20 03:59:14;;;;;;;8.90;6.95;;;;;;;32.12;56.63;100974.75;5020476;28;66431;-33
2021/04/20 04:01:48;;;;;;;7.03;6.25;;;;;;;32.14;56.80;100967.22;4994646;28;68754;-30
2021/04/20 04:04:24;;;;;;;7.20;6.50;;;;;;;32.15;56.57;100967.00;5006995;28;66329;-30
2021/04/20 04:06:55;;;;;;;7.50;6.93;;;;;;;32.12;56.69;100951.16;5014231;28;69321;-30
2021/04/20 04:09:29;;;;;;;7.07;6.47;;;;;;;32.21;56.41;100959.84;5038359;28;66576;-30
2021/04/20 04:12:05;;;;;;;6.68;6.28;;;;;;;32.21;56.33;100952.53;5018589;28;70149;-31
2021/04/20 04:14:36;;;;;;;7.38;6.88;;;;;;;32.24;56.34;100953.94;5028505;28;66771;-31
2021/04/20 04:17:10;;;;;;;8.00;7.20;;;;;;;32.24;56.53;100948.53;5027444;28;69205;-31
2021/04/20 04:19:52;;;;;;;7.80;6.72;;;;;;;32.21;56.89;100936.22;5023141;28;66313;-29
2021/04/20 04:22:31;;;;;;;7.45;6.97;;;;;;;32.28;56.50;100941.56;5025716;28;69257;-28
2021/04/20 04:25:04;;;;;;;7.20;6.70;;;;;;;32.28;56.44;100933.41;5023170;28;66734;-29
2021/04/20 04:27:38;;;;;;;8.05;7.18;;;;;;;32.29;56.65;100929.66;5026055;28;69865;-29
2021/04/20 04:30:09;;;;;;;7.00;6.40;;;;;;;32.34;56.05;100932.50;5023871;28;66308;-30
2021/04/20 04:32:42;;;;;;;6.88;6.28;;;;;;;32.37;55.98;100926.59;5022992;28;70228;-30
2021/04/20 04:35:13;;;;;;;8.70;7.07;;;;;;;32.39;56.15;100932.66;5022960;28;66785;-30
2021/04/20 04:37:59;;;;;;;7.68;6.95;;;;;;;32.39;56.23;100916.34;5022121;28;68626;-29
2021/04/20 04:40:32;;;;;;;7.25;6.80;;;;;;;32.41;55.59;100914.25;5024191;28;65626;-30
2021/04/20 04:43:03;;;;;;;7.25;6.72;;;;;;;32.41;56.32;100921.56;5020435;28;69734;-29
2021/04/20 04:45:33;;;;;;;7.20;6.70;;;;;;;32.44;56.05;100919.22;5022553;28;65315;-30
2021/04/20 04:48:03;;;;;;;7.57;6.93;;;;;;;32.39;55.64;100900.06;5025641;28;69936;-30
2021/04/20 04:50:40;;;;;;;7.80;6.60;;;;;;;32.46;55.69;100906.28;5024754;28;66185;-29
2021/04/20 04:53:11;;;;;;;7.40;6.90;;;;;;;32.41;55.41;100892.53;5022349;28;70100;-29
2021/04/20 04:55:41;;;;;;;7.45;6.80;;;;;;;32.47;55.76;100891.63;5027154;28;66208;-29
2021/04/20 04:58:11;;;;;;;7.47;6.53;;;;;;;32.52;55.64;100890.13;5025033;28;69681;-29
2021/04/20 05:00:44;;;;;;;7.28;6.63;;;;;;;32.47;55.61;100875.34;5024057;28;66012;-30
2021/04/20 05:03:15;;;;;;;6.90;6.30;;;;;;;32.53;55.51;100879.00;5020484;28;69504;-30
2021/04/20 05:06:01;;;;;;;7.45;6.75;;;;;;;32.55;55.42;100876.91;5014508;28;66540;-30
2021/04/20 05:08:31;;;;;;;8.75;7.32;;;;;;;32.60;55.76;100862.63;5021246;28;69290;-30
2021/04/20 05:11:02;;;;;;;7.20;6.50;;;;;;;32.60;55.70;100858.03;5026901;28;65216;-30
2021/04/20 05:13:34;;;;;;;7.13;6.60;;;;;;;32.64;55.54;100852.94;5021782;28;69883;-30
2021/04/20 05:16:07;;;;;;;6.97;6.37;;;;;;;32.63;55.46;100846.69;5028942;28;66080;-30
2021/04/20 05:18:40;;;;;;;12.73;7.55;;;;;;;32.61;55.21;100837.94;5023614;28;70811;-29
2021/04/20 05:21:10;;;;;;;;;;;;;;;32.59;55.61;100829.19;5029163;28;65928;-30
2021/04/20 05:23:39;;;;;;;6.15;5.57;;;;;;;32.72;55.01;100822.75;5019420;28;69460;-29
2021/04/20 05:26:09;;;;;;;8.48;6.22;;;;;;;32.74;55.24;100815.19;5024832;28;67051;-28
2021/04/20 05:28:42;;;;;;;6.45;6.05;;;;;;;32.74;54.85;100804.31;5018494;28;70007;-29
2021/04/20 05:31:13;;;;;;;6.25;5.65;;;;;;;32.74;54.97;100798.91;5023202;28;66307;-28
2021/04/20 05:33:53;;;;;;;6.68;6.28;;;;;;;32.80;54.68;100795.22;5039755;27;69233;-29
2021/04/20 05:36:23;;;;;;;6.80;6.07;;;;;;;32.82;55.24;100784.97;5029184;28;65196;-30
2021/04/20 05:38:58;;;;;;;10.95;5.65;;;;;;;32.83;54.97;100775.75;5022429;28;69807;-29
2021/04/20 05:41:36;;;;;;;6.25;5.85;;;;;;;32.83;54.93;100766.75;5025435;28;66339;-30
2021/04/20 05:44:09;;;;;;;6.07;5.57;;;;;;;32.83;54.86;100759.44;5028770;28;70073;-29
2021/04/20 05:46:47;;;;;;;5.85;5.35;;;;;;;32.84;54.83;100744.78;5025498;28;65948;-29
2021/04/20 05:49:20;;;;;;;6.50;6.07;;;;;;;32.92;54.82;100752.56;5023825;28;69673;-29
2021/04/20 05:51:50;;;;;;;;;;;;;;;32.84;54.92;100739.34;5022617;28;66031;-29
2021/04/20 05:54:21;;;;;;;5.72;5.32;;;;;;;32.96;54.36;100735.78;5017891;28;70395;-30
2021/04/20 05:56:51;;;;;;;5.75;5.35;;;;;;;32.98;54.28;100733.66;5024952;28;66721;-29
2021/04/20 05:59:21;;;;;;;7.95;5.78;;;;;;;33.00;54.38;100726.16;5024346;28;70089;-30
2021/04/20 06:01:53;;;;;;;9.43;5.65;;;;;;;33.00;54.81;100726.97;5027583;28;65553;-30
2021/04/20 06:04:23;;;;;;;6.78;5.20;;;;;;;33.05;54.65;100718.09;5016246;28;70018;-29
2021/04/20 06:06:53;;;;;;;8.30;5.40;;;;;;;33.08;54.49;100709.47;5017980;28;65560;-29
2021/04/20 06:09:26;;;;;;;6.03;5.32;;;;;;;33.09;54.83;100713.84;5017009;28;70101;-30
2021/04/20 06:11:56;;;;;;;5.65;5.03;;;;;;;33.10;54.55;100704.63;5019947;28;64924;-30
2021/04/20 06:14:26;;;;;;;5.03;4.72;;;;;;;33.11;54.59;100698.13;5020863;28;69168;-29
2021/04/20 06:16:58;;;;;;;5.53;5.05;;;;;;;33.15;54.68;100691.97;5016530;28;65390;-30
2021/04/20 06:19:30;;;;;;;7.45;5.07;;;;;;;33.15;54.51;100683.81;5009337;28;70141;-31
2021/04/20 06:22:00;;;;;;;5.10;4.80;;;;;;;33.19;54.52;100686.06;5024886;28;66087;-30
2021/04/20 06:24:33;;;;;;;4.97;4.50;;;;;;;33.19;54.24;100681.44;5025010;28;69898;-30
2021/04/20 06:27:03;;;;;;;6.72;5.18;;;;;;;33.21;54.63;100673.88;5019777;28;66569;-30
2021/04/20 06:29:33;;;;;;;6.18;5.57;;;;;;;33.19;54.26;100665.13;5025107;28;71325;-29
2021/04/20 06:32:03;;;;;;;4.72;4.43;;;;;;;33.25;54.28;100664.16;5028570;28;65681;-29
2021/04/20 06:34:33;;;;;;;5.35;4.85;;;;;;;33.26;54.24;100668.53;5026443;28;70780;-29
2021/04/20 06:37:06;;;;;;;9.93;5.13;;;;;;;33.27;54.61;100653.88;5029180;28;66292;-30
2021/04/20 06:39:39;;;;;;;8.68;5.50;;;;;;;33.31;54.11;100646.88;5026756;28;69167;-29
2021/04/20 06:42:19;;;;;;;5.63;5.22;;;;;;;33.26;54.15;100627.75;5019379;28;66211;-29
2021/04/20 06:44:57;;;;;;;5.22;4.72;;;;;;;33.36;54.09;100640.72;5016747;28;70281;-30
2021/04/20 06:47:43;;;;;;;5.72;5.30;;;;;;;33.32;53.89;100618.63;5010573;28;65371;-29
2021/04/20 06:50:17;;;;;;;6.45;5.22;;;;;;;33.36;54.04;100616.25;5020189;28;69365;-29
2021/04/20 06:52:55;;;;;;;8.95;5.10;;;;;;;33.43;54.02;100622.34;5021470;28;65282;-29
2021/04/20 06:55:27;;;;;;;4.93;4.63;;;;;;;33.40;54.00;100611.97;5022007;28;70074;-30
2021/04/20 06:58:12;;;;;;;5.05;4.65;;;;;;;33.40;53.99;100605.72;5018942;28;66136;-29
2021/04/20 07:01:15;;;;;;;5.55;5.15;;;;;;;33.44;54.16;100607.69;5025146;28;70078;-29
2021/04/20 07:04:05;;;;;;;5.28;4.78;;;;;;;33.42;54.09;100609.84;5006371;28;65950;-30
2021/04/20 07:06:43;;;;;;;5.35;4.95;;;;;;;33.49;54.04;100604.22;5015791;28;71097;-30
2021/04/20 07:09:26;;;;;;;5.05;4.75;;;;;;;33.52;53.91;100599.19;5023128;27;65227;-28
2021/04/20 07:11:57;;;;;;;5.30;4.97;;;;;;;33.55;53.93;100597.88;5014783;28;70929;-30
2021/04/20 07:14:42;;;;;;;4.88;4.57;;;;;;;33.52;53.59;100577.44;5026063;28;65135;-29
2021/04/20 07:17:37;;;;;;;4.93;4.53;;;;;;;33.55;54.02;100576.94;5021142;28;69778;-29
2021/04/20 07:20:28;;;;;;;4.70;4.40;;;;;;;33.57;53.73;100579.38;5023006;28;66300;-30
2021/04/20 07:23:32;;;;;;;6.63;5.00;;;;;;;33.58;53.59;100589.22;5022585;28;69026;-31
2021/04/20 07:26:10;;;;;;;5.70;4.22;;;;;;;33.63;53.61;100583.88;5011425;28;66161;-29
2021/04/20 07:28:52;;;;;;;7.80;4.53;;;;;;;33.66;53.69;100571.66;5023301;28;69070;-29
2021/04/20 07:31:29;;;;;;;4.88;4.50;;;;;;;33.66;53.67;100561.59;5022016;28;66021;-29
2021/04/20 07:34:35;;;;;;;5.20;4.70;;;;;;;33.64;53.62;100557.47;5022727;28;69950;-30
2021/04/20 07:37:24;;;;;;;4.70;4.30;;;;;;;33.72;53.80;100567.97;5023003;28;66023;-30
2021/04/20 07:40:35;;;;;;;6.95;4.40;;;;;;;33.67;53.81;100557.81;5017950;28;69902;-29
2021/04/20 07:43:26;;;;;;;5.38;4.45;;;;;;;33.67;53.57;100549.66;5018529;28;66817;-29
2021/04/20 07:46:09;;;;;;;6.13;4.43;;;;;;;33.67;53.36;100530.59;5021200;28;70156;-29
2021/04/20 07:49:14;;;;;;;5.22;4.72;;;;;;;33.79;53.20;100544.97;5017675;28;65415;-30
2021/04/20 07:52:02;;;;;;;5.13;4.82;;;;;;;33.71;53.42;100537.22;5008429;28;69362;-30
2021/04/20 07:54:38;;;;;;;4.80;4.40;;;;;;;33.78;53.56;100537.84;5021872;28;66184;-30
2021/04/20 07:57:38;;;;;;;4.85;4.45;;;;;;;33.74;53.23;100528.56;5021967;28;70016;-29
2021/04/20 08:00:18;;;;;;;5.45;4.85;;;;;;;33.80;53.41;100546.59;5013484;28;66252;-31
2021/04/20 08:02:47;;;;;;;5.35;4.88;;;;;;;33.88;53.19;100539.06;5031466;28;70141;-30
2021/04/20 08:05:29;;;;;;;5.07;4.60;;;;;;;33.84;53.28;100541.47;5012334;28;66253;-30
2021/04/20 08:08:14;;;;;;;5.10;4.70;;;;;;;33.81;53.42;100542.78;5020686;28;69862;-30
2021/04/20 08:10:47;;;;;;;4.75;4.28;;;;;;;33.91;53.66;100541.31;5038792;28;65956;-30
2021/04/20 08:13:20;;;;;;;5.40;4.32;;;;;;;33.95;53.22;100543.28;5021553;28;70113;-30
2021/04/20 08:15:54;;;;;;;4.88;4.47;;;;;;;33.94;53.16;100546.25;5020596;28;64888;-30
2021/04/20 08:18:31;;;;;;;5.75;4.43;;;;;;;33.88;53.28;100544.50;5027269;28;70334;-29
2021/04/20 08:21:07;;;;;;;4.53;4.10;;;;;;;33.96;53.47;100554.97;5026056;28;66061;-29
2021/04/20 08:23:49;;;;;;;5.28;4.43;;;;;;;33.96;53.28;100544.09;5033379;28;69931;-29
2021/04/20 08:26:26;;;;;;;5.13;4.72;;;;;;;34.00;53.09;100550.69;5019877;28;65955;-29
2021/04/20 08:29:10;;;;;;;7.68;4.60;;;;;;;33.96;53.26;100534.06;5030473;28;70118;-29
2021/04/20 08:31:58;;;;;;;5.68;4.78;;;;;;;34.04;53.04;100535.50;5020481;28;67331;-30
2021/04/20 08:34:56;;;;;;;5.35;4.55;;;;;;;34.00;53.10;100534.38;5023707;28;71330;-29
2021/04/20 08:38:15;;;;;;;5.60;4.68;;;;;;;34.02;53.19;100533.06;5034951;28;65967;-29
2021/04/20 08:41:17;;;;;;;5.63;5.22;;;;;;;34.01;52.91;100519.69;5021981;28;69395;-29
2021/04/20 08:44:24;;;;;;;4.93;4.43;;;;;;;34.00;53.07;100528.94;5025060;28;66204;-30
2021/04/20 08:47:17;;;;;;;4.70;4.30;;;;;;;34.04;52.94;100530.06;5020329;28;69782;-28
2021/04/20 08:50:22;;;;;;;8.52;5.05;;;;;;;33.97;52.85;100543.03;5034246;28;66529;-29
2021/04/20 08:53:18;;;;;;;4.82;4.43;;;;;;;34.02;53.28;100540.41;5010982;28;69071;-29
2021/04/20 08:56:01;;;;;;;8.30;4.38;;;;;;;34.04;53.01;100538.22;5007053;28;66743;-30
2021/04/20 08:58:38;;;;;;;5.95;4.95;;;;;;;34.01;52.73;100546.91;5036868;28;69285;-30
2021/04/20 09:01:35;;;;;;;6.28;4.50;;;;;;;33.98;53.19;100559.09;5002630;28;65946;-29
2021/04/20 09:04:30;;;;;;;4.78;4.47;;;;;;;33.89;53.26;100543.47;5015378;28;69426;-30
2021/04/20 09:07:11;;;;;;;8.10;4.57;;;;;;;33.97;52.88;100557.47;5023441;28;65774;-30
2021/04/20 09:09:46;;;;;;;5.45;4.97;;;;;;;34.00;52.94;100559.69;5050068;28;69921;-29
2021/04/20 09:12:17;;;;;;;14.23;4.78;;;;;;;33.97;52.88;100570.25;5026354;28;65917;-29
2021/04/20 09:14:51;;;;;;;7.97;5.90;;;;;;;33.94;53.30;100557.97;5033983;28;69941;-29
2021/04/20 09:17:43;;;;;;;5.57;5.10;;;;;;;33.98;53.20;100569.16;5020576;28;66036;-29
2021/04/20 09:20:36;;;;;;;12.35;5.80;;;;;;;33.94;52.99;100568.84;5020618;28;69803;-30
2021/04/20 09:23:24;;;;;;;7.03;6.30;;;;;;;33.94;53.29;100568.84;5009827;28;65433;-30
2021/04/20 09:26:32;;;;;;;6.35;5.85;;;;;;;33.88;53.72;100585.31;5018271;28;69880;-30
2021/04/20 09:29:13;;;;;;;7.15;6.55;;;;;;;33.98;53.62;100585.50;5007896;28;65189;-30
2021/04/20 09:32:02;;;;;;;8.88;6.55;;;;;;;33.96;53.51;100571.31;5017027;28;69528;-30
2021/04/20 09:34:38;;;;;;;11.63;6.57;;;;;;;33.90;53.68;100577.75;5024351;28;66020;-30
2021/04/20 09:37:09;;;;;;;14.18;7.25;;;;;;;33.95;53.67;100578.66;5018281;28;70001;-28
2021/04/20 09:39:45;;;;;;;7.47;6.50;;;;;;;33.90;53.64;100566.88;5020280;28;67014;-29
2021/04/20 09:42:16;;;;;;;9.07;7.75;;;;;;;33.95;53.39;100570.50;5024253;28;69904;-29
2021/04/20 09:45:19;;;;;;;9.15;7.68;;;;;;;33.93;53.56;100574.53;5015703;28;66171;-29
2021/04/20 09:47:56;;;;;;;8.25;7.38;;;;;;;33.98;53.57;100575.44;5022277;28;70198;-30
2021/04/20 09:50:46;;;;;;;8.02;7.30;;;;;;;33.90;53.83;100577.75;5015712;28;65151;-29
2021/04/20 09:53:43;;;;;;;8.93;7.30;;;;;;;33.90;53.96;100569.59;5001618;28;69122;-30
2021/04/20 09:56:16;;;;;;;8.07;7.47;;;;;;;33.92;53.97;100565.53;5017506;28;65030;-29
2021/04/20 09:58:49;;;;;;;9.30;8.48;;;;;;;33.74;54.96;100569.38;5019808;28;70692;-28
2021/04/20 10:02:01;;;;;;;14.27;8.52;;;;;;;33.41;56.52;100570.13;5019319;28;67051;-30
2021/04/20 10:04:53;;;;;;;26.00;9.00;;;;;;;33.47;56.25;100580.03;5022457;28;70306;-29
2021/04/20 10:07:55;;;;;;;;;;;;;;;33.28;56.58;100576.69;5016839;28;65495;-29
2021/04/20 10:10:57;;;;;;;15.82;9.25;;;;;;;33.38;56.58;100576.88;4989891;28;70062;-28
2021/04/20 10:13:41;;;;;;;34.00;10.02;;;;;;;33.31;56.82;100573.47;5019664;28;66025;-28
2021/04/20 10:16:32;;;;;;;15.95;11.00;;;;;;;33.37;55.97;100582.53;5022899;28;69890;-29
2021/04/20 10:19:05;;;;;;;17.92;10.80;;;;;;;33.34;56.32;100597.44;5029784;28;65216;-28
2021/04/20 10:21:59;;;;;;;19.50;10.50;;;;;;;33.33;56.61;100612.13;5019490;28;69274;-29
2021/04/20 10:24:35;;;;;;;19.58;11.73;;;;;;;33.29;56.34;100619.13;5019871;28;65887;-27
2021/04/20 10:27:27;;;;;;;17.08;11.80;;;;;;;33.13;56.97;100611.75;5022850;28;69274;-28
2021/04/20 10:30:11;;;;;;;24.13;12.80;;;;;;;33.18;56.84;100614.53;5030433;28;66353;-29
2021/04/20 10:32:49;;;;;;;29.58;12.63;;;;;;;33.10;56.77;100607.63;5021261;28;69342;-30
2021/04/20 10:35:40;;;;;;;18.83;12.48;;;;;;;33.15;56.68;100615.88;5011088;28;65080;-29
2021/04/20 10:42:05;;;;;;;33.17;14.82;;;;;;;33.13;56.27;100628.88;5023267;28;66321;-29
2021/04/20 10:44:38;;;;;;;36.88;15.02;;;;;;;33.12;56.54;100631.81;5043441;28;69768;-29
2021/04/20 10:47:09;;;;;;;32.65;16.73;;;;;;;33.10;56.33;100644.84;5006263;28;65988;-29
2021/04/20 10:49:51;;;;;;;33.50;18.10;;;;;;;33.03;56.52;100650.41;5030833;28;70233;-29
2021/04/20 10:52:32;;;;;;;40.45;18.02;;;;;;;33.01;57.07;100646.28;5031819;28;66833;-30
2021/04/20 10:55:09;;;;;;;34.55;17.75;;;;;;;33.07;57.02;100656.16;5018647;28;69889;-29
2021/04/20 10:57:46;;;;;;;35.28;17.98;;;;;;;33.01;57.38;100651.69;5026673;28;66798;-29
2021/04/20 11:00:19;;;;;;;36.03;17.90;;;;;;;32.97;57.24;100637.75;5029138;28;69886;-30
2021/04/20 11:02:54;;;;;;;47.85;18.30;;;;;;;32.99;57.81;100648.38;5027662;28;65399;-30
2021/04/20 11:05:27;;;;;;;48.28;18.17;;;;;;;32.99;58.10;100648.38;5025380;28;69878;-30
2021/04/20 11:07:59;;;;;;;33.60;16.42;;;;;;;33.01;58.36;100651.69;5025054;28;65879;-30
2021/04/20 11:10:36;;;;;;;29.67;17.10;;;;;;;32.98;58.69;100663.03;5018818;28;70374;-30
2021/04/20 11:13:10;;;;;;;28.52;15.80;;;;;;;32.98;58.48;100668.47;5028065;28;65323;-30
2021/04/20 11:15:40;;;;;;;35.92;15.77;;;;;;;32.96;58.68;100674.16;5030077;28;69066;-29
2021/04/20 11:18:13;;;;;;;26.80;14.52;;;;;;;32.91;58.90;100668.59;5021771;28;65980;-29
2021/04/20 11:20:49;;;;;;;29.02;15.25;;;;;;;32.89;59.13;100666.09;5032016;28;69025;-29
2021/04/20 11:23:26;;;;;;;26.60;15.35;;;;;;;32.85;59.30;100677.72;5024477;28;66563;-31
2021/04/20 11:26:12;;;;;;;26.48;15.70;;;;;;;32.86;59.23;100691.03;5024262;28;69999;-31
2021/04/20 11:28:41;;;;;;;25.73;14.27;;;;;;;32.91;58.91;100693.88;5033231;28;65119;-30
2021/04/20 11:31:19;;;;;;;26.13;13.90;;;;;;;32.91;59.06;100685.72;5021287;28;69980;-31
2021/04/20 11:34:09;;;;;;;27.75;15.15;;;;;;;32.86;59.07;100688.31;5016224;28;66074;-30
2021/04/20 11:36:44;;;;;;;19.00;14.13;;;;;;;32.85;58.88;100683.16;5030425;28;69901;-30
2021/04/20 11:39:25;;;;;;;25.60;14.38;;;;;;;32.75;59.49;100672.06;5013188;28;66001;-30
2021/04/20 11:42:01;;;;;;;22.92;14.30;;;;;;;32.75;59.46;100678.31;5014772;28;69778;-31
2021/04/20 11:44:44;;;;;;;19.25;13.88;;;;;;;32.77;59.55;100684.34;5012997;28;67073;-30
2021/04/20 11:47:16;;;;;;;31.75;19.30;;;;;;;32.80;59.22;100681.13;5012530;28;69164;-30
2021/04/20 11:49:49;;;;;;;30.42;20.08;;;;;;;32.73;59.41;100683.13;5014199;28;66103;-31
2021/04/20 11:52:32;;;;;;;32.58;19.55;;;;;;;32.67;59.23;100673.22;5014036;28;69733;-29
2021/04/20 11:55:06;;;;;;;;;;;;;;;32.65;59.31;100688.94;5007579;28;64886;-29
2021/04/20 11:57:39;;;;;;;31.75;20.15;;;;;;;32.64;59.44;100684.56;5015808;28;69036;-29
2021/04/20 12:00:13;;;;;;;30.70;19.27;;;;;;;32.68;59.25;100689.31;5018115;28;66489;-30
2021/04/20 12:02:47;;;;;;;24.02;16.90;;;;;;;32.65;59.70;100686.22;5013436;28;69965;-29
2021/04/20 12:05:21;;;;;;;35.45;18.25;;;;;;;32.60;59.24;100691.56;5016013;28;65018;-29
2021/04/20 12:07:55;;;;;;;45.08;22.00;;;;;;;32.52;59.81;100709.03;5020185;28;69053;-30
2021/04/20 12:10:28;;;;;;;40.50;25.77;;;;;;;32.58;59.81;100699.91;5018154;28;66468;-29